createdAt,value
2022-08-08T00:01:20.998Z,47.70
2022-08-08T00:04:25.426Z,47.80
2022-08-08T00:07:35.828Z,48.40
2022-08-08T00:10:32.243Z,47.80
2022-08-08T00:13:13.014Z,47.80
2022-08-08T00:16:11.912Z,47.80
2022-08-08T00:18:48.384Z,47.80
2022-08-08T00:21:23.164Z,47.80
2022-08-08T00:23:56.642Z,47.80
2022-08-08T00:26:38.783Z,47.80
2022-08-08T00:29:47.163Z,47.80
2022-08-08T00:32:35.369Z,47.80
2022-08-08T00:35:39.450Z,47.90
2022-08-08T00:38:30.884Z,47.90
2022-08-08T00:41:45.130Z,49.40
2022-08-08T00:44:37.453Z,48.00
2022-08-08T00:47:36.889Z,48.10
2022-08-08T00:50:21.599Z,48.20
2022-08-08T00:53:21.079Z,48.40
2022-08-08T00:56:30.030Z,48.30
2022-08-08T00:59:44.217Z,48.40
2022-08-08T01:04:00.043Z,48.40
2022-08-08T01:06:16.827Z,48.40
2022-08-08T01:09:35.390Z,48.50
2022-08-08T01:12:36.572Z,48.70
2022-08-08T01:15:47.307Z,48.60
2022-08-08T01:18:53.045Z,48.70
2022-08-08T01:22:11.891Z,48.80
2022-08-08T01:25:02.087Z,48.90
2022-08-08T01:27:44.039Z,48.90
2022-08-08T01:30:53.977Z,48.80
2022-08-08T01:33:53.998Z,48.90
2022-08-08T01:37:02.968Z,48.90
2022-08-08T01:40:03.002Z,48.90
2022-08-08T01:42:37.678Z,48.90
2022-08-08T01:45:27.989Z,49.10
2022-08-08T01:48:30.528Z,49.00
2022-08-08T01:51:31.926Z,48.90
2022-08-08T01:55:45.149Z,48.90
2022-08-08T01:58:12.534Z,48.80
2022-08-08T02:01:04.863Z,48.80
2022-08-08T02:04:01.732Z,48.80
2022-08-08T02:06:53.780Z,48.70
2022-08-08T02:09:50.222Z,48.70
2022-08-08T02:12:51.362Z,48.70
2022-08-08T02:15:38.495Z,48.60
2022-08-08T02:18:19.011Z,50.00
2022-08-08T02:21:40.187Z,49.20
2022-08-08T02:24:29.514Z,48.60
2022-08-08T02:27:13.396Z,48.50
2022-08-08T02:30:03.126Z,48.50
2022-08-08T02:33:00.885Z,48.60
2022-08-08T02:36:04.626Z,48.50
2022-08-08T02:38:52.865Z,48.50
2022-08-08T02:41:59.011Z,48.40
2022-08-08T02:44:58.670Z,49.50
2022-08-08T02:48:16.020Z,48.80
2022-08-08T02:51:30.368Z,48.40
2022-08-08T02:54:37.432Z,48.30
2022-08-08T02:57:44.448Z,48.30
2022-08-08T03:00:51.006Z,48.20
2022-08-08T03:05:02.422Z,48.20
2022-08-08T03:06:41.609Z,48.20
2022-08-08T03:10:17.714Z,48.20
2022-08-08T03:15:58.849Z,48.10
2022-08-08T03:16:43.916Z,48.10
2022-08-08T03:19:29.685Z,48.00
2022-08-08T03:21:58.789Z,47.90
2022-08-08T03:24:28.878Z,48.00
2022-08-08T03:27:12.527Z,47.90
2022-08-08T03:29:56.281Z,47.90
2022-08-08T03:33:07.915Z,47.90
2022-08-08T03:35:55.287Z,48.10
2022-08-08T03:38:57.829Z,48.50
2022-08-08T03:42:12.143Z,49.20
2022-08-08T03:43:59.684Z,48.90
2022-08-08T03:46:32.487Z,48.20
2022-08-08T03:49:26.529Z,48.30
2022-08-08T03:51:55.283Z,48.30
2022-08-08T03:54:41.361Z,48.30
2022-08-08T03:58:32.449Z,48.40
2022-08-08T04:00:11.825Z,48.50
2022-08-08T04:03:11.504Z,48.40
2022-08-08T04:05:47.914Z,48.40
2022-08-08T04:08:32.945Z,48.50
2022-08-08T04:11:10.623Z,49.30
2022-08-08T04:14:03.676Z,48.50
2022-08-08T04:16:38.591Z,48.50
2022-08-08T04:19:23.113Z,48.50
2022-08-08T04:21:51.738Z,49.30
2022-08-08T04:24:19.530Z,48.60
2022-08-08T04:26:57.208Z,48.70
2022-08-08T04:29:25.529Z,48.70
2022-08-08T04:31:59.604Z,48.70
2022-08-08T04:34:31.903Z,48.70
2022-08-08T04:36:59.552Z,48.70
2022-08-08T04:40:03.814Z,48.70
2022-08-08T04:42:18.451Z,48.70
2022-08-08T04:44:47.745Z,48.60
2022-08-08T04:47:16.606Z,48.80
2022-08-08T04:50:00.696Z,48.70
2022-08-08T04:52:35.026Z,48.70
2022-08-08T04:55:06.549Z,48.60
2022-08-08T04:57:34.661Z,48.70
2022-08-08T05:00:05.490Z,48.70
2022-08-08T05:02:32.755Z,48.70
2022-08-08T05:05:00.210Z,48.60
2022-08-08T05:07:38.267Z,48.80
2022-08-08T05:10:12.975Z,48.80
2022-08-08T05:12:42.968Z,49.60
2022-08-08T05:16:48.527Z,48.90
2022-08-08T05:18:15.288Z,48.90
2022-08-08T05:20:50.287Z,49.00
2022-08-08T05:23:20.581Z,49.00
2022-08-08T05:25:49.718Z,49.00
2022-08-08T05:28:56.769Z,50.00
2022-08-08T05:31:19.086Z,49.10
2022-08-08T05:33:51.983Z,49.30
2022-08-08T05:36:25.444Z,49.30
2022-08-08T05:38:54.067Z,49.30
2022-08-08T05:41:23.826Z,49.30
2022-08-08T05:44:04.929Z,49.50
2022-08-08T05:46:33.887Z,49.30
2022-08-08T05:49:07.557Z,49.50
2022-08-08T05:51:48.285Z,49.60
2022-08-08T05:54:27.774Z,50.30
2022-08-08T05:57:15.188Z,49.80
2022-08-08T06:00:01.485Z,50.00
2022-08-08T06:03:07.358Z,50.70
2022-08-08T06:06:01.342Z,51.20
2022-08-08T06:08:53.432Z,50.30
2022-08-08T06:11:28.246Z,50.40
2022-08-08T06:13:57.706Z,50.40
2022-08-08T06:16:27.574Z,51.30
2022-08-08T06:19:16.205Z,51.30
2022-08-08T06:21:57.247Z,50.40
2022-08-08T06:24:36.267Z,50.50
2022-08-08T06:27:09.497Z,51.30
2022-08-08T06:30:01.073Z,50.80
2022-08-08T06:32:56.649Z,51.80
2022-08-08T06:36:07.566Z,51.00
2022-08-08T06:38:19.249Z,52.00
2022-08-08T06:40:54.156Z,52.20
2022-08-08T06:43:34.128Z,52.70
2022-08-08T06:46:08.654Z,53.20
2022-08-08T06:48:38.230Z,53.50
2022-08-08T06:51:08.380Z,55.00
2022-08-08T06:53:38.923Z,54.20
2022-08-08T06:56:08.984Z,54.10
2022-08-08T06:58:37.089Z,54.10
2022-08-08T07:02:18.075Z,53.60
2022-08-08T07:04:37.385Z,53.10
2022-08-08T07:07:10.464Z,53.40
2022-08-08T07:09:59.345Z,53.30
2022-08-08T07:12:41.209Z,53.50
2022-08-08T07:15:32.078Z,53.20
2022-08-08T07:18:36.576Z,53.20
2022-08-08T07:21:06.285Z,53.10
2022-08-08T07:24:04.714Z,53.20
2022-08-08T07:26:53.070Z,53.10
2022-08-08T07:30:02.048Z,53.10
2022-08-08T07:32:15.754Z,53.10
2022-08-08T07:34:59.297Z,53.40
2022-08-08T07:37:56.186Z,53.30
2022-08-08T07:40:29.185Z,54.30
2022-08-08T07:43:09.615Z,53.30
2022-08-08T07:46:05.947Z,53.40
2022-08-08T07:48:30.905Z,53.40
2022-08-08T07:51:00.941Z,53.70
2022-08-08T07:54:06.235Z,53.50
2022-08-08T07:57:17.236Z,53.20
2022-08-08T07:59:59.065Z,53.10
2022-08-08T08:02:41.709Z,53.30
2022-08-08T08:05:20.208Z,53.10
2022-08-08T08:07:54.819Z,53.60
2022-08-08T08:10:30.700Z,53.30
2022-08-08T08:13:42.579Z,53.30
2022-08-08T08:16:23.176Z,53.20
2022-08-08T08:18:57.255Z,53.20
2022-08-08T08:21:44.312Z,53.70
2022-08-08T08:24:32.157Z,53.30
2022-08-08T08:27:02.738Z,53.30
2022-08-08T08:29:31.153Z,54.20
2022-08-08T08:31:59.279Z,53.20
2022-08-08T08:34:32.266Z,53.00
2022-08-08T08:37:07.972Z,53.20
2022-08-08T08:39:59.977Z,53.10
2022-08-08T08:42:31.607Z,53.10
2022-08-08T08:45:21.136Z,54.70
2022-08-08T08:47:58.175Z,53.00
2022-08-08T08:50:33.472Z,53.00
2022-08-08T08:53:27.339Z,53.60
2022-08-08T08:56:05.339Z,52.90
2022-08-08T08:58:42.085Z,52.90
2022-08-08T09:01:15.698Z,52.80
2022-08-08T09:03:50.735Z,52.80
2022-08-08T09:06:34.307Z,52.70
2022-08-08T09:09:26.487Z,52.70
2022-08-08T09:12:09.932Z,52.60
2022-08-08T09:14:42.457Z,52.50
2022-08-08T09:17:17.864Z,52.90
2022-08-08T09:21:57.974Z,52.40
2022-08-08T09:22:35.251Z,52.40
2022-08-08T09:25:05.462Z,52.40
2022-08-08T09:27:55.701Z,52.30
2022-08-08T09:30:26.856Z,52.80
2022-08-08T09:33:13.038Z,52.20
2022-08-08T09:35:49.920Z,52.20
2022-08-08T09:39:00.334Z,52.30
2022-08-08T09:42:14.122Z,52.10
2022-08-08T09:44:55.737Z,52.60
2022-08-08T09:47:26.573Z,53.20
2022-08-08T09:50:21.284Z,52.10
2022-08-08T09:53:05.720Z,52.00
2022-08-08T09:56:03.625Z,52.30
2022-08-08T09:58:40.716Z,51.90
2022-08-08T10:01:14.371Z,52.00
2022-08-08T10:03:55.961Z,51.80
2022-08-08T10:06:26.798Z,51.80
2022-08-08T10:08:56.815Z,51.80
2022-08-08T10:12:26.220Z,51.70
2022-08-08T10:14:28.264Z,51.80
2022-08-08T10:16:59.468Z,51.50
2022-08-08T10:19:46.309Z,52.10
2022-08-08T10:22:27.588Z,51.60
2022-08-08T10:25:05.668Z,51.60
2022-08-08T10:27:42.079Z,51.40
2022-08-08T10:30:23.562Z,51.60
2022-08-08T10:33:00.314Z,51.50
2022-08-08T10:36:09.689Z,51.50
2022-08-08T10:38:20.911Z,51.40
2022-08-08T10:40:53.392Z,51.40
2022-08-08T10:43:22.906Z,51.30
2022-08-08T10:45:56.492Z,52.20
2022-08-08T10:48:57.206Z,51.30
2022-08-08T10:51:47.218Z,51.40
2022-08-08T10:54:24.963Z,51.20
2022-08-08T10:57:00.172Z,51.30
2022-08-08T10:59:30.955Z,51.20
2022-08-08T11:01:58.006Z,51.30
2022-08-08T11:04:38.707Z,51.30
2022-08-08T11:07:07.077Z,51.80
2022-08-08T11:09:34.657Z,51.30
2022-08-08T11:12:13.027Z,51.40
2022-08-08T11:15:00.462Z,51.40
2022-08-08T11:18:00.585Z,51.80
2022-08-08T11:20:27.044Z,51.60
2022-08-08T11:22:59.775Z,52.00
2022-08-08T11:25:52.325Z,51.70
2022-08-08T11:28:29.559Z,52.60
2022-08-08T11:31:00.723Z,51.70
2022-08-08T11:33:51.839Z,51.40
2022-08-08T11:36:21.350Z,51.70
2022-08-08T11:38:54.139Z,52.00
2022-08-08T11:41:24.976Z,52.40
2022-08-08T11:43:57.838Z,51.30
2022-08-08T11:46:28.080Z,51.60
2022-08-08T11:49:00.652Z,51.60
2022-08-08T11:51:30.755Z,51.40
2022-08-08T11:54:26.634Z,53.00
2022-08-08T11:56:57.592Z,51.70
2022-08-08T11:59:58.196Z,51.80
2022-08-08T12:02:32.596Z,51.20
2022-08-08T12:05:08.053Z,52.10
2022-08-08T12:07:53.801Z,50.90
2022-08-08T12:10:25.469Z,50.90
2022-08-08T12:13:05.379Z,51.90
2022-08-08T12:15:42.391Z,51.60
2022-08-08T12:18:24.713Z,50.90
2022-08-08T12:20:54.657Z,50.90
2022-08-08T12:24:01.820Z,51.20
2022-08-08T12:26:41.549Z,51.40
2022-08-08T12:29:40.775Z,50.90
2022-08-08T12:32:17.074Z,51.40
2022-08-08T12:35:04.105Z,51.40
2022-08-08T12:37:41.190Z,50.90
2022-08-08T12:40:23.715Z,52.00
2022-08-08T12:42:52.745Z,50.80
2022-08-08T12:46:00.096Z,51.30
2022-08-08T12:48:37.362Z,52.50
2022-08-08T12:51:11.396Z,50.80
2022-08-08T12:54:01.529Z,51.00
2022-08-08T12:56:39.965Z,50.90
2022-08-08T12:59:44.433Z,51.60
2022-08-08T13:02:28.006Z,51.00
2022-08-08T13:04:58.596Z,51.40
2022-08-08T13:08:03.923Z,51.40
2022-08-08T13:10:36.296Z,51.70
2022-08-08T13:13:08.148Z,51.40
2022-08-08T13:15:36.459Z,52.90
2022-08-08T13:18:11.757Z,52.40
2022-08-08T13:20:45.856Z,52.40
2022-08-08T13:23:36.794Z,51.00
2022-08-08T13:26:15.490Z,51.50
2022-08-08T13:28:45.871Z,51.50
2022-08-08T13:31:16.545Z,51.70
2022-08-08T13:33:49.681Z,52.70
2022-08-08T13:36:18.186Z,51.60
2022-08-08T13:38:53.774Z,51.60
2022-08-08T13:41:22.116Z,51.60
2022-08-08T13:43:49.649Z,51.60
2022-08-08T13:46:28.449Z,51.60
2022-08-08T13:50:32.397Z,52.80
2022-08-08T13:51:55.131Z,52.40
2022-08-08T13:54:31.233Z,51.20
2022-08-08T13:57:17.116Z,51.70
2022-08-08T13:59:48.524Z,52.00
2022-08-08T14:02:20.776Z,51.70
2022-08-08T14:05:20.294Z,51.70
2022-08-08T14:07:52.455Z,51.20
2022-08-08T14:10:33.463Z,51.20
2022-08-08T14:13:30.895Z,51.60
2022-08-08T14:16:12.826Z,51.60
2022-08-08T14:18:53.775Z,51.60
2022-08-08T14:21:22.470Z,51.60
2022-08-08T14:24:07.297Z,51.60
2022-08-08T14:26:46.302Z,52.10
2022-08-08T14:29:30.210Z,51.50
2022-08-08T14:32:11.040Z,51.60
2022-08-08T14:34:42.843Z,51.20
2022-08-08T14:37:12.954Z,52.40
2022-08-08T14:40:06.005Z,51.50
2022-08-08T14:42:35.405Z,51.60
2022-08-08T14:45:11.343Z,51.00
2022-08-08T14:48:06.578Z,51.00
2022-08-08T14:50:38.800Z,51.50
2022-08-08T14:53:13.504Z,52.20
2022-08-08T14:55:43.030Z,51.50
2022-08-08T14:58:16.251Z,52.50
2022-08-08T15:00:45.306Z,51.60
2022-08-08T15:03:17.307Z,52.60
2022-08-08T15:05:54.421Z,51.70
2022-08-08T15:08:35.207Z,51.40
2022-08-08T15:11:09.168Z,51.50
2022-08-08T15:14:01.498Z,51.20
2022-08-08T15:16:27.891Z,51.50
2022-08-08T15:18:55.499Z,52.80
2022-08-08T15:21:22.647Z,51.30
2022-08-08T15:23:54.783Z,52.60
2022-08-08T15:26:25.776Z,51.80
2022-08-08T15:28:55.604Z,52.70
2022-08-08T15:31:55.583Z,52.30
2022-08-08T15:34:29.877Z,50.80
2022-08-08T15:36:59.615Z,52.60
2022-08-08T15:39:31.648Z,51.40
2022-08-08T15:42:06.995Z,51.00
2022-08-08T15:44:38.531Z,52.40
2022-08-08T15:47:07.281Z,52.60
2022-08-08T15:49:44.875Z,51.90
2022-08-08T15:52:17.839Z,51.40
2022-08-08T15:54:47.813Z,51.50
2022-08-08T15:57:18.821Z,51.10
2022-08-08T16:00:05.749Z,51.70
2022-08-08T16:02:50.292Z,53.00
2022-08-08T16:05:23.553Z,53.20
2022-08-08T16:07:53.994Z,51.50
2022-08-08T16:13:03.964Z,52.40
2022-08-08T16:13:30.298Z,50.60
2022-08-08T16:16:09.227Z,50.30
2022-08-08T16:18:44.508Z,50.80
2022-08-08T16:21:29.470Z,48.40
2022-08-08T16:23:59.178Z,47.80
2022-08-08T16:26:34.055Z,47.80
2022-08-08T16:29:08.735Z,48.30
2022-08-08T16:31:41.760Z,47.10
2022-08-08T16:34:09.914Z,47.70
2022-08-08T16:36:40.655Z,48.30
2022-08-08T16:39:09.577Z,46.30
2022-08-08T16:41:50.349Z,45.50
2022-08-08T16:44:27.791Z,45.20
2022-08-08T16:47:21.738Z,46.60
2022-08-08T16:50:00.014Z,44.60
2022-08-08T16:55:04.394Z,45.00
2022-08-08T16:55:52.556Z,45.90
2022-08-08T16:58:16.313Z,44.70
2022-08-08T17:00:49.069Z,45.90
2022-08-08T17:03:24.846Z,44.60
2022-08-08T17:06:02.272Z,44.20
2022-08-08T17:08:29.391Z,45.40
2022-08-08T17:11:10.194Z,45.30
2022-08-08T17:13:40.894Z,44.70
2022-08-08T17:16:17.708Z,46.30
2022-08-08T17:18:49.185Z,45.80
2022-08-08T17:21:18.597Z,44.70
2022-08-08T17:24:01.736Z,44.10
2022-08-08T17:26:30.320Z,44.40
2022-08-08T17:29:04.329Z,44.30
2022-08-08T17:31:43.428Z,44.30
2022-08-08T17:34:36.182Z,44.90
2022-08-08T17:37:06.629Z,44.20
2022-08-08T17:40:02.832Z,45.80
2022-08-08T17:42:25.272Z,45.70
2022-08-08T17:44:52.958Z,47.50
2022-08-08T17:47:23.756Z,48.10
2022-08-08T17:49:53.104Z,47.60
2022-08-08T17:52:28.946Z,48.50
2022-08-08T17:54:56.979Z,49.70
2022-08-08T17:57:24.422Z,49.20
2022-08-08T17:59:59.121Z,51.20
2022-08-08T18:02:31.210Z,50.60
2022-08-08T18:04:58.815Z,50.90
2022-08-08T18:08:02.845Z,49.30
2022-08-08T18:10:15.398Z,48.60
2022-08-08T18:12:44.286Z,47.80
2022-08-08T18:15:13.166Z,47.70
2022-08-08T18:18:10.000Z,48.30
2022-08-08T18:20:44.163Z,47.50
2022-08-08T18:23:14.963Z,48.60
2022-08-08T18:25:43.080Z,48.20
2022-08-08T18:28:13.593Z,48.50
2022-08-08T18:30:42.680Z,50.50
2022-08-08T18:33:20.174Z,49.60
2022-08-08T18:36:03.695Z,48.90
2022-08-08T18:38:32.397Z,50.60
2022-08-08T18:41:03.058Z,49.50
2022-08-08T18:43:42.807Z,50.30
2022-08-08T18:46:54.753Z,50.00
2022-08-08T18:48:58.049Z,50.00
2022-08-08T18:51:53.217Z,51.40
2022-08-08T18:54:22.619Z,50.60
2022-08-08T18:56:53.712Z,51.60
2022-08-08T18:59:20.755Z,51.60
2022-08-08T19:02:28.490Z,53.20
2022-08-08T19:04:36.765Z,51.40
2022-08-08T19:07:03.960Z,51.10
2022-08-08T19:09:48.955Z,50.20
2022-08-08T19:12:19.148Z,50.90
2022-08-08T19:14:46.522Z,50.50
2022-08-08T19:17:28.967Z,51.00
2022-08-08T19:20:02.597Z,50.90
2022-08-08T19:22:30.120Z,51.00
2022-08-08T19:26:01.701Z,51.20
2022-08-08T19:27:56.091Z,50.40
2022-08-08T19:30:26.699Z,51.30
2022-08-08T19:32:58.053Z,51.10
2022-08-08T19:35:44.390Z,51.20
2022-08-08T19:38:17.467Z,49.90
2022-08-08T19:40:54.397Z,50.50
2022-08-08T19:43:28.626Z,51.80
2022-08-08T19:46:00.813Z,51.80
2022-08-08T19:48:30.923Z,50.40
2022-08-08T19:51:01.077Z,51.00
2022-08-08T19:53:53.466Z,49.70
2022-08-08T19:56:16.454Z,49.20
2022-08-08T19:58:53.007Z,50.40
2022-08-08T20:01:26.225Z,49.80
2022-08-08T20:04:09.050Z,50.80
2022-08-08T20:06:36.458Z,50.30
2022-08-08T20:09:04.447Z,51.70
2022-08-08T20:11:43.136Z,51.60
2022-08-08T20:14:32.884Z,50.30
2022-08-08T20:16:57.524Z,51.70
2022-08-08T20:19:34.651Z,52.30
2022-08-08T20:22:13.101Z,50.20
2022-08-08T20:24:48.468Z,50.40
2022-08-08T20:27:20.239Z,50.10
2022-08-08T20:29:56.101Z,51.20
2022-08-08T20:32:29.560Z,51.30
2022-08-08T20:35:00.721Z,50.60
2022-08-08T20:37:47.119Z,50.70
2022-08-08T20:40:17.374Z,50.20
2022-08-08T20:42:55.144Z,51.80
2022-08-08T20:45:34.265Z,50.40
2022-08-08T20:48:09.956Z,51.50
2022-08-08T20:50:37.584Z,53.00
2022-08-08T20:53:16.505Z,52.50
2022-08-08T20:55:54.110Z,51.50
2022-08-08T20:58:23.190Z,51.40
2022-08-08T21:00:50.423Z,52.10
2022-08-08T21:03:17.415Z,52.10
2022-08-08T21:05:59.054Z,52.00
2022-08-08T21:08:37.361Z,51.80
2022-08-08T21:11:13.958Z,52.20
2022-08-08T21:13:43.483Z,51.00
2022-08-08T21:16:20.309Z,51.40
2022-08-08T21:18:57.165Z,52.30
2022-08-08T21:21:39.721Z,51.30
2022-08-08T21:24:22.335Z,51.50
2022-08-08T21:26:55.648Z,51.70
2022-08-08T21:29:23.102Z,53.00
2022-08-08T21:32:14.171Z,52.60
2022-08-08T21:34:49.596Z,53.10
2022-08-08T21:37:19.175Z,51.70
2022-08-08T21:39:56.925Z,53.40
2022-08-08T21:42:24.067Z,53.60
2022-08-08T21:44:58.098Z,53.70
2022-08-08T21:48:19.501Z,53.70
2022-08-08T21:50:13.208Z,53.90
2022-08-08T21:54:33.840Z,53.70
2022-08-08T21:56:19.084Z,54.40
2022-08-08T21:58:14.799Z,52.70
2022-08-08T22:00:44.034Z,53.50
2022-08-08T22:03:17.732Z,54.10
2022-08-08T22:05:45.886Z,53.80
2022-08-08T22:08:15.591Z,53.20
2022-08-08T22:10:51.914Z,53.90
2022-08-08T22:13:21.813Z,52.60
2022-08-08T22:15:59.410Z,53.90
2022-08-08T22:18:32.563Z,53.10
2022-08-08T22:21:14.020Z,52.70
2022-08-08T22:23:50.586Z,53.20
2022-08-08T22:26:29.039Z,52.70
2022-08-08T22:29:14.680Z,52.80
2022-08-08T22:32:01.367Z,52.90
2022-08-08T22:34:39.880Z,54.80
2022-08-08T22:37:09.112Z,53.60
2022-08-08T22:40:01.441Z,53.20
2022-08-08T22:42:31.747Z,54.40
2022-08-08T22:45:12.441Z,53.70
2022-08-08T22:47:41.620Z,53.80
2022-08-08T22:50:26.272Z,54.00
2022-08-08T22:54:32.564Z,54.00
2022-08-08T22:55:58.368Z,54.20
2022-08-08T22:58:28.805Z,55.60
2022-08-08T23:00:59.699Z,54.20
2022-08-08T23:03:34.101Z,55.10
2022-08-08T23:06:16.037Z,54.00
2022-08-08T23:08:44.668Z,55.60
2022-08-08T23:11:57.978Z,55.20
2022-08-08T23:14:11.311Z,54.60
2022-08-08T23:16:43.907Z,55.50
2022-08-08T23:19:15.246Z,54.80
2022-08-08T23:21:42.998Z,56.80
2022-08-08T23:24:12.603Z,55.80
2022-08-08T23:26:55.613Z,56.10
2022-08-08T23:29:25.519Z,55.10
2022-08-08T23:31:53.407Z,55.00
2022-08-08T23:34:21.192Z,55.10
2022-08-08T23:36:56.795Z,55.10
2022-08-08T23:39:32.051Z,55.70
2022-08-08T23:42:00.688Z,55.10
2022-08-08T23:44:29.075Z,56.20
2022-08-08T23:49:03.739Z,55.40
2022-08-08T23:49:49.606Z,57.00
2022-08-08T23:52:30.693Z,56.10
2022-08-08T23:55:07.266Z,56.30
2022-08-08T23:57:52.070Z,56.40
